Christchurch, New Zealand
Current Conditions -  °F | °C
As of 3:00 PM on Saturday 25 Oct 2014 (Local Time) from NZCH Reporting Station
Clear Clear  
Wind Chill: 55°   Ceiling: Unl
Heat Index: 55°   Visibility: 6mi
Dew Point: 43°   Wind: 23mph
Humidity: 63%   Direction: 70°ENE
Pressure: 30"   Gusts: NA
Location:  43.53°S, 172.64°E
Report Text: NZCH 250300Z AUTO 07020KT 9999 NCD 13/06 Q1016 NOSIG
Loading
Personal Weather Stations






























Interactive Weather Map New forecast layout! Learn more

10-Day Weather Forecast

Advertisements
Track Severe Weather on mobile